sensor_id;sensor_type;location;lat;lon;timestamp;temperature;humidity
47114;DHT22;32867;51.556;6.832;2023-07-16T00:04:09;19.80;99.90
47114;DHT22;32867;51.556;6.832;2023-07-16T00:09:09;19.80;99.90
47114;DHT22;32867;51.556;6.832;2023-07-16T00:14:11;19.60;99.90
47114;DHT22;32867;51.556;6.832;2023-07-16T00:19:14;19.50;99.90
47114;DHT22;32867;51.556;6.832;2023-07-16T00:24:15;19.60;99.90
47114;DHT22;32867;51.556;6.832;2023-07-16T00:29:16;19.30;99.90
47114;DHT22;32867;51.556;6.832;2023-07-16T00:34:16;19.30;99.90
47114;DHT22;32867;51.556;6.832;2023-07-16T00:39:18;19.40;99.90
47114;DHT22;32867;51.556;6.832;2023-07-16T00:44:19;19.40;99.90
47114;DHT22;32867;51.556;6.832;2023-07-16T00:49:20;19.40;99.90
47114;DHT22;32867;51.556;6.832;2023-07-16T00:54:22;19.50;99.90
47114;DHT22;32867;51.556;6.832;2023-07-16T00:59:23;19.50;99.90
47114;DHT22;32867;51.556;6.832;2023-07-16T01:04:24;19.30;99.90
47114;DHT22;32867;51.556;6.832;2023-07-16T01:09:25;19.20;99.90
47114;DHT22;32867;51.556;6.832;2023-07-16T01:14:27;19.10;99.90
47114;DHT22;32867;51.556;6.832;2023-07-16T01:19:29;19.10;99.90
47114;DHT22;32867;51.556;6.832;2023-07-16T01:24:44;19.10;99.90
47114;DHT22;32867;51.556;6.832;2023-07-16T01:29:52;19.20;99.90
47114;DHT22;32867;51.556;6.832;2023-07-16T01:34:55;19.20;99.90
47114;DHT22;32867;51.556;6.832;2023-07-16T01:39:55;19.20;99.90
47114;DHT22;32867;51.556;6.832;2023-07-16T01:44:56;19.20;99.90
47114;DHT22;32867;51.556;6.832;2023-07-16T01:49:57;19.10;99.90
47114;DHT22;32867;51.556;6.832;2023-07-16T01:54:57;19.10;99.90
47114;DHT22;32867;51.556;6.832;2023-07-16T01:59:58;19.10;99.90
47114;DHT22;32867;51.556;6.832;2023-07-16T02:04:59;19.00;99.90
47114;DHT22;32867;51.556;6.832;2023-07-16T02:09:59;19.00;99.90
47114;DHT22;32867;51.556;6.832;2023-07-16T02:15:00;19.00;99.90
47114;DHT22;32867;51.556;6.832;2023-07-16T02:20:01;19.00;99.90
47114;DHT22;32867;51.556;6.832;2023-07-16T02:25:02;18.90;99.90
47114;DHT22;32867;51.556;6.832;2023-07-16T02:30:04;18.90;99.90
47114;DHT22;32867;51.556;6.832;2023-07-16T02:35:07;18.90;99.90
47114;DHT22;32867;51.556;6.832;2023-07-16T02:40:08;18.90;99.90
47114;DHT22;32867;51.556;6.832;2023-07-16T02:45:08;18.90;99.90
47114;DHT22;32867;51.556;6.832;2023-07-16T02:50:10;19.00;99.90
47114;DHT22;32867;51.556;6.832;2023-07-16T02:55:11;19.00;99.90
47114;DHT22;32867;51.556;6.832;2023-07-16T03:00:12;19.00;99.90
47114;DHT22;32867;51.556;6.832;2023-07-16T03:05:13;19.00;99.90
47114;DHT22;32867;51.556;6.832;2023-07-16T03:10:13;19.10;99.90
47114;DHT22;32867;51.556;6.832;2023-07-16T03:15:14;19.00;99.90
47114;DHT22;32867;51.556;6.832;2023-07-16T03:20:15;18.90;99.90
47114;DHT22;32867;51.556;6.832;2023-07-16T03:25:15;18.90;99.90
47114;DHT22;32867;51.556;6.832;2023-07-16T03:30:16;18.90;99.90
47114;DHT22;32867;51.556;6.832;2023-07-16T03:35:17;18.80;99.90
47114;DHT22;32867;51.556;6.832;2023-07-16T03:40:24;18.80;99.90
47114;DHT22;32867;51.556;6.832;2023-07-16T03:45:25;18.70;99.90
47114;DHT22;32867;51.556;6.832;2023-07-16T03:50:26;18.70;99.90
47114;DHT22;32867;51.556;6.832;2023-07-16T03:55:30;18.70;99.90
47114;DHT22;32867;51.556;6.832;2023-07-16T04:00:30;18.60;99.90
47114;DHT22;32867;51.556;6.832;2023-07-16T04:05:32;18.60;99.90
47114;DHT22;32867;51.556;6.832;2023-07-16T04:10:33;18.70;99.90
47114;DHT22;32867;51.556;6.832;2023-07-16T04:15:33;18.70;99.90
47114;DHT22;32867;51.556;6.832;2023-07-16T04:20:34;18.60;99.90
47114;DHT22;32867;51.556;6.832;2023-07-16T04:25:34;18.70;99.90
47114;DHT22;32867;51.556;6.832;2023-07-16T04:30:35;18.50;99.90
47114;DHT22;32867;51.556;6.832;2023-07-16T04:35:37;18.50;99.90
47114;DHT22;32867;51.556;6.832;2023-07-16T04:40:38;18.60;99.90
47114;DHT22;32867;51.556;6.832;2023-07-16T04:45:38;18.80;99.90
47114;DHT22;32867;51.556;6.832;2023-07-16T04:50:40;18.80;99.90
47114;DHT22;32867;51.556;6.832;2023-07-16T04:55:40;18.70;99.90
47114;DHT22;32867;51.556;6.832;2023-07-16T05:00:41;18.90;99.90
47114;DHT22;32867;51.556;6.832;2023-07-16T05:05:42;18.80;99.90
47114;DHT22;32867;51.556;6.832;2023-07-16T05:10:43;18.80;99.90
47114;DHT22;32867;51.556;6.832;2023-07-16T05:15:44;18.90;99.90
47114;DHT22;32867;51.556;6.832;2023-07-16T05:20:47;19.00;99.90
47114;DHT22;32867;51.556;6.832;2023-07-16T05:25:49;19.00;99.90
47114;DHT22;32867;51.556;6.832;2023-07-16T05:31:00;19.00;99.90
47114;DHT22;32867;51.556;6.832;2023-07-16T05:36:01;19.10;99.90
47114;DHT22;32867;51.556;6.832;2023-07-16T05:41:03;19.20;99.90
47114;DHT22;32867;51.556;6.832;2023-07-16T05:46:04;19.20;99.90
47114;DHT22;32867;51.556;6.832;2023-07-16T05:51:05;19.40;99.90
47114;DHT22;32867;51.556;6.832;2023-07-16T05:56:06;19.70;99.90
47114;DHT22;32867;51.556;6.832;2023-07-16T06:01:07;19.50;99.90
47114;DHT22;32867;51.556;6.832;2023-07-16T06:06:09;19.70;99.90
47114;DHT22;32867;51.556;6.832;2023-07-16T06:11:09;19.60;99.90
47114;DHT22;32867;51.556;6.832;2023-07-16T06:16:10;19.60;99.90
47114;DHT22;32867;51.556;6.832;2023-07-16T06:21:11;19.60;99.90
47114;DHT22;32867;51.556;6.832;2023-07-16T06:26:12;19.50;99.90
47114;DHT22;32867;51.556;6.832;2023-07-16T06:31:13;19.50;99.90
47114;DHT22;32867;51.556;6.832;2023-07-16T06:36:13;19.70;99.90
47114;DHT22;32867;51.556;6.832;2023-07-16T06:41:15;19.70;99.10
47114;DHT22;32867;51.556;6.832;2023-07-16T06:46:15;19.60;99.70
47114;DHT22;32867;51.556;6.832;2023-07-16T06:51:16;19.80;99.50
47114;DHT22;32867;51.556;6.832;2023-07-16T06:56:17;20.00;98.50
47114;DHT22;32867;51.556;6.832;2023-07-16T07:01:17;20.10;98.50
47114;DHT22;32867;51.556;6.832;2023-07-16T07:06:18;20.20;97.90
47114;DHT22;32867;51.556;6.832;2023-07-16T07:11:18;20.10;97.70
47114;DHT22;32867;51.556;6.832;2023-07-16T07:16:19;20.20;97.50
47114;DHT22;32867;51.556;6.832;2023-07-16T07:21:20;20.40;96.90
47114;DHT22;32867;51.556;6.832;2023-07-16T07:26:20;20.30;96.70
47114;DHT22;32867;51.556;6.832;2023-07-16T07:31:21;20.30;96.60
47114;DHT22;32867;51.556;6.832;2023-07-16T07:36:22;20.40;95.90
47114;DHT22;32867;51.556;6.832;2023-07-16T07:41:23;20.80;95.10
47114;DHT22;32867;51.556;6.832;2023-07-16T07:46:24;20.70;95.50
47114;DHT22;32867;51.556;6.832;2023-07-16T07:51:24;20.80;95.00
47114;DHT22;32867;51.556;6.832;2023-07-16T07:56:25;20.70;94.60
47114;DHT22;32867;51.556;6.832;2023-07-16T08:01:26;20.70;94.70
47114;DHT22;32867;51.556;6.832;2023-07-16T08:06:27;20.80;94.00
47114;DHT22;32867;51.556;6.832;2023-07-16T08:11:28;20.90;92.80
47114;DHT22;32867;51.556;6.832;2023-07-16T08:16:29;20.90;92.60
47114;DHT22;32867;51.556;6.832;2023-07-16T08:21:30;21.10;92.60
47114;DHT22;32867;51.556;6.832;2023-07-16T08:26:30;21.20;92.00
47114;DHT22;32867;51.556;6.832;2023-07-16T08:31:31;21.30;91.90
47114;DHT22;32867;51.556;6.832;2023-07-16T08:36:33;21.20;91.10
47114;DHT22;32867;51.556;6.832;2023-07-16T08:41:34;21.50;90.40
47114;DHT22;32867;51.556;6.832;2023-07-16T08:46:34;21.50;90.30
47114;DHT22;32867;51.556;6.832;2023-07-16T08:51:36;21.50;90.50
47114;DHT22;32867;51.556;6.832;2023-07-16T08:56:38;21.80;89.30
47114;DHT22;32867;51.556;6.832;2023-07-16T09:01:38;21.70;89.80
47114;DHT22;32867;51.556;6.832;2023-07-16T09:06:39;21.90;89.40
47114;DHT22;32867;51.556;6.832;2023-07-16T09:11:47;22.20;88.80
47114;DHT22;32867;51.556;6.832;2023-07-16T09:16:48;22.10;87.30
47114;DHT22;32867;51.556;6.832;2023-07-16T09:21:49;22.10;86.80
47114;DHT22;32867;51.556;6.832;2023-07-16T09:26:52;21.80;86.60
47114;DHT22;32867;51.556;6.832;2023-07-16T09:31:58;22.00;86.50
47114;DHT22;32867;51.556;6.832;2023-07-16T09:37:00;22.50;85.30
47114;DHT22;32867;51.556;6.832;2023-07-16T09:42:02;22.50;85.00
47114;DHT22;32867;51.556;6.832;2023-07-16T09:47:03;22.40;84.60
47114;DHT22;32867;51.556;6.832;2023-07-16T09:52:04;21.50;86.50
47114;DHT22;32867;51.556;6.832;2023-07-16T09:57:06;21.90;86.20
47114;DHT22;32867;51.556;6.832;2023-07-16T10:02:08;22.20;85.70
47114;DHT22;32867;51.556;6.832;2023-07-16T10:07:23;22.50;84.10
47114;DHT22;32867;51.556;6.832;2023-07-16T10:12:25;22.60;84.50
47114;DHT22;32867;51.556;6.832;2023-07-16T10:17:27;22.50;83.50
47114;DHT22;32867;51.556;6.832;2023-07-16T10:22:37;22.70;83.00
47114;DHT22;32867;51.556;6.832;2023-07-16T10:27:39;22.70;82.50
47114;DHT22;32867;51.556;6.832;2023-07-16T10:32:39;22.60;81.70
47114;DHT22;32867;51.556;6.832;2023-07-16T10:37:40;22.70;82.90
47114;DHT22;32867;51.556;6.832;2023-07-16T10:42:42;22.60;82.10
47114;DHT22;32867;51.556;6.832;2023-07-16T10:47:54;22.60;81.60
47114;DHT22;32867;51.556;6.832;2023-07-16T10:52:56;22.20;83.30
47114;DHT22;32867;51.556;6.832;2023-07-16T10:57:57;22.30;82.40
47114;DHT22;32867;51.556;6.832;2023-07-16T11:02:58;21.90;82.90
47114;DHT22;32867;51.556;6.832;2023-07-16T11:07:59;22.10;83.80
47114;DHT22;32867;51.556;6.832;2023-07-16T11:12:59;22.60;83.00
47114;DHT22;32867;51.556;6.832;2023-07-16T11:18:02;22.70;82.40
47114;DHT22;32867;51.556;6.832;2023-07-16T11:23:04;22.70;81.80
47114;DHT22;32867;51.556;6.832;2023-07-16T11:28:05;22.80;81.60
47114;DHT22;32867;51.556;6.832;2023-07-16T11:33:10;22.80;81.20
47114;DHT22;32867;51.556;6.832;2023-07-16T11:38:12;22.90;81.20
47114;DHT22;32867;51.556;6.832;2023-07-16T11:43:12;22.60;81.00
47114;DHT22;32867;51.556;6.832;2023-07-16T11:48:13;22.90;81.30
47114;DHT22;32867;51.556;6.832;2023-07-16T11:53:13;23.30;80.40
47114;DHT22;32867;51.556;6.832;2023-07-16T11:58:14;23.60;79.40
47114;DHT22;32867;51.556;6.832;2023-07-16T12:03:15;23.20;79.10
47114;DHT22;32867;51.556;6.832;2023-07-16T12:08:15;23.10;78.60
47114;DHT22;32867;51.556;6.832;2023-07-16T12:13:16;23.00;79.40
47114;DHT22;32867;51.556;6.832;2023-07-16T12:18:17;23.20;79.20
47114;DHT22;32867;51.556;6.832;2023-07-16T12:23:17;23.10;78.70
47114;DHT22;32867;51.556;6.832;2023-07-16T12:28:18;23.10;79.50
47114;DHT22;32867;51.556;6.832;2023-07-16T12:33:19;22.70;79.60
47114;DHT22;32867;51.556;6.832;2023-07-16T12:38:19;22.80;79.60
47114;DHT22;32867;51.556;6.832;2023-07-16T12:43:21;22.90;80.50
47114;DHT22;32867;51.556;6.832;2023-07-16T12:48:22;23.10;79.50
47114;DHT22;32867;51.556;6.832;2023-07-16T12:53:23;23.40;79.30
47114;DHT22;32867;51.556;6.832;2023-07-16T12:58:24;23.70;78.60
47114;DHT22;32867;51.556;6.832;2023-07-16T13:03:25;23.30;78.90
47114;DHT22;32867;51.556;6.832;2023-07-16T13:08:25;23.70;78.70
47114;DHT22;32867;51.556;6.832;2023-07-16T13:13:26;24.10;78.10
47114;DHT22;32867;51.556;6.832;2023-07-16T13:18:27;24.40;77.70
47114;DHT22;32867;51.556;6.832;2023-07-16T13:23:28;24.60;74.10
47114;DHT22;32867;51.556;6.832;2023-07-16T13:28:28;24.70;73.70
47114;DHT22;32867;51.556;6.832;2023-07-16T13:33:29;24.80;73.30
47114;DHT22;32867;51.556;6.832;2023-07-16T13:38:31;24.30;73.60
47114;DHT22;32867;51.556;6.832;2023-07-16T13:43:32;24.40;73.80
47114;DHT22;32867;51.556;6.832;2023-07-16T13:48:33;25.00;71.70
47114;DHT22;32867;51.556;6.832;2023-07-16T13:53:33;24.90;70.50
47114;DHT22;32867;51.556;6.832;2023-07-16T13:58:34;24.50;71.60
47114;DHT22;32867;51.556;6.832;2023-07-16T14:03:34;24.70;71.00
47114;DHT22;32867;51.556;6.832;2023-07-16T14:08:35;24.60;72.30
47114;DHT22;32867;51.556;6.832;2023-07-16T14:13:36;24.80;70.80
47114;DHT22;32867;51.556;6.832;2023-07-16T14:18:37;25.10;69.70
47114;DHT22;32867;51.556;6.832;2023-07-16T14:23:37;25.40;70.90
47114;DHT22;32867;51.556;6.832;2023-07-16T14:28:38;26.10;68.50
47114;DHT22;32867;51.556;6.832;2023-07-16T14:33:39;25.20;67.40
47114;DHT22;32867;51.556;6.832;2023-07-16T14:38:40;25.00;67.80
47114;DHT22;32867;51.556;6.832;2023-07-16T14:43:40;25.40;67.30
47114;DHT22;32867;51.556;6.832;2023-07-16T14:48:42;25.50;66.50
47114;DHT22;32867;51.556;6.832;2023-07-16T14:53:45;25.40;67.00
47114;DHT22;32867;51.556;6.832;2023-07-16T14:58:46;25.20;67.20
47114;DHT22;32867;51.556;6.832;2023-07-16T15:03:47;25.90;67.00
47114;DHT22;32867;51.556;6.832;2023-07-16T15:08:47;25.20;66.50
47114;DHT22;32867;51.556;6.832;2023-07-16T15:13:49;25.20;67.10
47114;DHT22;32867;51.556;6.832;2023-07-16T15:18:49;25.20;67.00
47114;DHT22;32867;51.556;6.832;2023-07-16T15:23:51;25.70;66.70
47114;DHT22;32867;51.556;6.832;2023-07-16T15:28:52;26.10;67.40
47114;DHT22;32867;51.556;6.832;2023-07-16T15:33:53;25.60;66.10
47114;DHT22;32867;51.556;6.832;2023-07-16T15:38:54;25.10;67.20
47114;DHT22;32867;51.556;6.832;2023-07-16T15:43:55;25.20;66.40
47114;DHT22;32867;51.556;6.832;2023-07-16T15:48:56;25.10;67.00
47114;DHT22;32867;51.556;6.832;2023-07-16T15:53:57;24.90;67.20
47114;DHT22;32867;51.556;6.832;2023-07-16T15:58:57;25.00;66.40
47114;DHT22;32867;51.556;6.832;2023-07-16T16:03:58;25.30;66.00
47114;DHT22;32867;51.556;6.832;2023-07-16T16:08:59;25.10;66.40
47114;DHT22;32867;51.556;6.832;2023-07-16T16:13:59;25.10;65.70
47114;DHT22;32867;51.556;6.832;2023-07-16T16:19:00;24.90;66.60
47114;DHT22;32867;51.556;6.832;2023-07-16T16:24:01;25.10;66.70
47114;DHT22;32867;51.556;6.832;2023-07-16T16:29:02;25.20;65.10
47114;DHT22;32867;51.556;6.832;2023-07-16T16:34:04;24.90;67.10
47114;DHT22;32867;51.556;6.832;2023-07-16T16:39:07;24.60;67.80
47114;DHT22;32867;51.556;6.832;2023-07-16T16:44:11;25.20;67.30
47114;DHT22;32867;51.556;6.832;2023-07-16T16:49:12;26.10;66.20
47114;DHT22;32867;51.556;6.832;2023-07-16T16:54:12;26.30;65.00
47114;DHT22;32867;51.556;6.832;2023-07-16T16:59:13;26.90;64.30
47114;DHT22;32867;51.556;6.832;2023-07-16T17:04:14;26.60;64.20
47114;DHT22;32867;51.556;6.832;2023-07-16T17:09:15;26.70;64.20
47114;DHT22;32867;51.556;6.832;2023-07-16T17:14:16;29.70;61.80
47114;DHT22;32867;51.556;6.832;2023-07-16T17:19:17;30.70;58.40
47114;DHT22;32867;51.556;6.832;2023-07-16T17:24:18;26.70;62.80
47114;DHT22;32867;51.556;6.832;2023-07-16T17:29:18;25.60;63.70
47114;DHT22;32867;51.556;6.832;2023-07-16T17:34:20;25.20;65.20
47114;DHT22;32867;51.556;6.832;2023-07-16T17:39:22;24.40;66.00
47114;DHT22;32867;51.556;6.832;2023-07-16T17:44:23;24.30;66.30
47114;DHT22;32867;51.556;6.832;2023-07-16T17:49:24;24.20;66.80
47114;DHT22;32867;51.556;6.832;2023-07-16T17:54:25;23.90;68.00
47114;DHT22;32867;51.556;6.832;2023-07-16T17:59:26;24.00;68.00
47114;DHT22;32867;51.556;6.832;2023-07-16T18:04:29;24.00;68.60
47114;DHT22;32867;51.556;6.832;2023-07-16T18:09:30;23.40;70.10
47114;DHT22;32867;51.556;6.832;2023-07-16T18:14:32;23.50;70.70
47114;DHT22;32867;51.556;6.832;2023-07-16T18:19:33;23.60;70.70
47114;DHT22;32867;51.556;6.832;2023-07-16T18:24:34;23.50;70.80
47114;DHT22;32867;51.556;6.832;2023-07-16T18:29:35;23.50;71.10
47114;DHT22;32867;51.556;6.832;2023-07-16T18:34:36;23.80;71.20
47114;DHT22;32867;51.556;6.832;2023-07-16T18:39:36;23.60;74.70
47114;DHT22;32867;51.556;6.832;2023-07-16T18:44:37;23.50;76.20
47114;DHT22;32867;51.556;6.832;2023-07-16T18:49:38;23.40;77.20
47114;DHT22;32867;51.556;6.832;2023-07-16T18:54:38;23.30;78.50
47114;DHT22;32867;51.556;6.832;2023-07-16T18:59:39;23.10;79.50
47114;DHT22;32867;51.556;6.832;2023-07-16T19:04:40;23.00;80.50
47114;DHT22;32867;51.556;6.832;2023-07-16T19:09:40;22.90;81.10
47114;DHT22;32867;51.556;6.832;2023-07-16T19:14:41;22.80;82.10
47114;DHT22;32867;51.556;6.832;2023-07-16T19:19:45;22.70;82.80
47114;DHT22;32867;51.556;6.832;2023-07-16T19:24:45;22.60;83.80
47114;DHT22;32867;51.556;6.832;2023-07-16T19:29:46;22.50;84.00
47114;DHT22;32867;51.556;6.832;2023-07-16T19:34:47;22.50;83.90
47114;DHT22;32867;51.556;6.832;2023-07-16T19:39:50;22.30;84.50
47114;DHT22;32867;51.556;6.832;2023-07-16T19:44:50;22.20;85.00
47114;DHT22;32867;51.556;6.832;2023-07-16T19:49:51;22.10;85.50
47114;DHT22;32867;51.556;6.832;2023-07-16T19:54:52;22.00;86.00
47114;DHT22;32867;51.556;6.832;2023-07-16T19:59:52;22.00;86.40
47114;DHT22;32867;51.556;6.832;2023-07-16T20:04:53;21.90;86.80
47114;DHT22;32867;51.556;6.832;2023-07-16T20:09:54;21.80;87.40
47114;DHT22;32867;51.556;6.832;2023-07-16T20:14:55;21.60;88.10
47114;DHT22;32867;51.556;6.832;2023-07-16T20:19:56;21.60;88.90
47114;DHT22;32867;51.556;6.832;2023-07-16T20:24:56;21.60;89.40
47114;DHT22;32867;51.556;6.832;2023-07-16T20:29:57;21.40;90.00
47114;DHT22;32867;51.556;6.832;2023-07-16T20:34:59;21.30;90.30
47114;DHT22;32867;51.556;6.832;2023-07-16T20:40:00;21.20;90.50
47114;DHT22;32867;51.556;6.832;2023-07-16T20:50:20;21.30;90.40
47114;DHT22;32867;51.556;6.832;2023-07-16T20:55:22;21.30;90.80
47114;DHT22;32867;51.556;6.832;2023-07-16T21:00:23;21.30;90.10
47114;DHT22;32867;51.556;6.832;2023-07-16T21:05:28;21.00;90.50
47114;DHT22;32867;51.556;6.832;2023-07-16T21:10:28;21.00;90.20
47114;DHT22;32867;51.556;6.832;2023-07-16T21:15:29;20.90;90.40
47114;DHT22;32867;51.556;6.832;2023-07-16T21:20:37;20.90;90.50
47114;DHT22;32867;51.556;6.832;2023-07-16T21:25:41;20.90;90.60
47114;DHT22;32867;51.556;6.832;2023-07-16T21:30:41;20.80;90.50
47114;DHT22;32867;51.556;6.832;2023-07-16T21:35:44;20.90;90.20
47114;DHT22;32867;51.556;6.832;2023-07-16T21:40:45;20.80;90.20
47114;DHT22;32867;51.556;6.832;2023-07-16T21:45:45;20.80;90.40
47114;DHT22;32867;51.556;6.832;2023-07-16T21:50:46;20.80;90.40
47114;DHT22;32867;51.556;6.832;2023-07-16T21:55:47;20.80;90.40
47114;DHT22;32867;51.556;6.832;2023-07-16T22:00:48;20.80;90.30
47114;DHT22;32867;51.556;6.832;2023-07-16T22:05:50;20.80;90.30
47114;DHT22;32867;51.556;6.832;2023-07-16T22:10:51;20.90;90.30
47114;DHT22;32867;51.556;6.832;2023-07-16T22:15:53;20.80;90.30
47114;DHT22;32867;51.556;6.832;2023-07-16T22:20:54;20.90;90.40
47114;DHT22;32867;51.556;6.832;2023-07-16T22:25:56;20.90;90.40
47114;DHT22;32867;51.556;6.832;2023-07-16T22:30:56;20.80;91.10
47114;DHT22;32867;51.556;6.832;2023-07-16T22:35:57;20.80;90.60
47114;DHT22;32867;51.556;6.832;2023-07-16T22:40:58;20.50;90.60
47114;DHT22;32867;51.556;6.832;2023-07-16T22:46:00;20.30;92.20
47114;DHT22;32867;51.556;6.832;2023-07-16T22:51:00;20.20;93.40
47114;DHT22;32867;51.556;6.832;2023-07-16T22:56:01;20.00;93.80
47114;DHT22;32867;51.556;6.832;2023-07-16T23:01:08;19.90;94.60
47114;DHT22;32867;51.556;6.832;2023-07-16T23:06:09;19.90;96.30
47114;DHT22;32867;51.556;6.832;2023-07-16T23:11:10;19.70;98.40
47114;DHT22;32867;51.556;6.832;2023-07-16T23:16:11;19.50;99.50
47114;DHT22;32867;51.556;6.832;2023-07-16T23:21:12;19.50;99.90
47114;DHT22;32867;51.556;6.832;2023-07-16T23:26:13;19.50;99.90
47114;DHT22;32867;51.556;6.832;2023-07-16T23:31:13;19.50;99.90
47114;DHT22;32867;51.556;6.832;2023-07-16T23:36:14;19.60;99.90
47114;DHT22;32867;51.556;6.832;2023-07-16T23:41:17;19.60;99.90
47114;DHT22;32867;51.556;6.832;2023-07-16T23:46:18;19.60;99.90
47114;DHT22;32867;51.556;6.832;2023-07-16T23:51:19;19.60;99.90
47114;DHT22;32867;51.556;6.832;2023-07-16T23:56:20;19.60;99.90
